Time;durP1;ratioP1;P1;durP2;ratioP2;P2;SDS_P1;SDS_P2;PMS_P1;PMS_P2;Temp;Humidity;BMP_temperature;BMP_pressure;BME280_temperature;BME280_humidity;BME280_pressure;Samples;Min_cycle;Max_cycle;Signal;HPM_P1;HPM_P2
2023/01/18 00:03:52;;;;;;;9.87;5.40;;;5.40;36.40;;;;;;10480573;28;20248;-80
2023/01/18 00:08:57;;;;;;;63.57;6.63;;;5.30;36.70;;;;;;10488444;28;20225;-80
2023/01/18 00:14:01;;;;;;;14.47;5.57;;;5.30;37.00;;;;;;10481335;28;20236;-79
2023/01/18 00:19:05;;;;;;;27.53;5.70;;;5.30;37.00;;;;;;10494546;28;20315;-80
2023/01/18 00:24:14;;;;;;;21.57;5.47;;;5.20;37.00;;;;;;10469597;28;20228;-80
2023/01/18 00:29:18;;;;;;;27.10;5.57;;;5.20;37.00;;;;;;10487579;28;20228;-80
2023/01/18 00:34:21;;;;;;;24.47;6.10;;;5.10;36.20;;;;;;10492481;28;20236;-80
2023/01/18 00:39:25;;;;;;;5.80;5.30;;;4.90;36.60;;;;;;10453915;28;20228;-80
2023/01/18 00:44:28;;;;;;;6.00;5.50;;;4.80;36.60;;;;;;10453836;28;20232;-80
2023/01/18 00:49:32;;;;;;;5.53;5.03;;;4.70;36.60;;;;;;10474613;28;20231;-80
2023/01/18 00:54:36;;;;;;;5.27;4.77;;;4.60;36.40;;;;;;10494856;28;20239;-80
2023/01/18 00:59:39;;;;;;;5.97;5.37;;;4.50;36.40;;;;;;10493846;28;20224;-81
2023/01/18 01:10:08;;;;;;;6.10;5.50;;;4.50;36.40;;;;;;10494286;28;20237;-80
2023/01/18 01:26:07;;;;;;;6.13;5.53;;;4.50;36.40;;;;;;10492733;28;20592;-79
2023/01/18 01:31:12;;;;;;;5.70;5.20;;;4.60;36.50;;;;;;10492344;28;20232;-81
2023/01/18 01:36:17;;;;;;;6.03;5.50;;;4.50;36.40;;;;;;10492922;28;20315;-80
2023/01/18 01:41:26;;;;;;;5.40;4.90;;;4.60;36.40;;;;;;10494025;28;20236;-79
2023/01/18 01:46:36;;;;;;;4.60;4.20;;;4.50;36.40;;;;;;10494035;28;20224;-80
2023/01/18 01:51:41;;;;;;;5.20;4.70;;;4.50;36.40;;;;;;10495189;28;20597;-80
2023/01/18 01:56:48;;;;;;;4.60;4.27;;;4.50;36.00;;;;;;10494223;28;20228;-80
2023/01/18 02:01:51;;;;;;;5.00;4.60;;;4.50;36.20;;;;;;10495615;28;20240;-80
2023/01/18 02:06:55;;;;;;;5.37;4.87;;;4.40;36.00;;;;;;10494194;28;20687;-79
2023/01/18 02:11:59;;;;;;;4.63;4.23;;;4.40;35.90;;;;;;10494004;28;20224;-80
2023/01/18 02:17:15;;;;;;;4.70;4.30;;;4.40;35.80;;;;;;10494099;28;20707;-79
2023/01/18 02:22:32;;;;;;;4.87;4.47;;;4.30;36.20;;;;;;10494106;28;20689;-80
2023/01/18 02:27:43;;;;;;;5.23;4.83;;;4.20;36.10;;;;;;10493972;28;20224;-80
2023/01/18 02:33:03;;;;;;;5.13;4.73;;;4.20;36.10;;;;;;10495270;28;20236;-80
2023/01/18 02:38:12;;;;;;;5.83;5.33;;;4.10;36.10;;;;;;10494269;28;20223;-79
2023/01/18 02:48:45;;;;;;;5.73;5.23;;;3.90;35.90;;;;;;10502789;28;20246;-79
2023/01/18 02:53:48;;;;;;;42.40;4.83;;;3.80;35.80;;;;;;10501103;28;20224;-79
2023/01/18 02:58:55;;;;;;;6.47;4.70;;;3.80;35.80;;;;;;10501001;28;20778;-79
2023/01/18 03:04:04;;;;;;;4.70;4.30;;;3.70;35.70;;;;;;10501643;28;20772;-80
2023/01/18 03:09:09;;;;;;;31.43;4.63;;;3.60;35.60;;;;;;10501244;28;20228;-79
2023/01/18 03:14:21;;;;;;;29.00;4.30;;;3.70;35.80;;;;;;10501868;28;20237;-80
2023/01/18 03:25:01;;;;;;;4.73;4.33;;;3.30;36.10;;;;;;10507400;28;20278;-80
2023/01/18 03:35:31;;;;;;;4.30;3.90;;;3.20;36.10;;;;;;10504028;28;20282;-79
2023/01/18 03:40:36;;;;;;;3.77;3.47;;;3.20;36.40;;;;;;10503913;28;20635;-79
2023/01/18 03:45:44;;;;;;;4.47;4.10;;;3.10;36.30;;;;;;10503334;28;20247;-78
2023/01/18 03:50:51;;;;;;;4.40;4.00;;;3.20;36.60;;;;;;10503036;28;20231;-79
2023/01/18 03:55:59;;;;;;;4.40;4.03;;;3.30;36.80;;;;;;10503512;28;20626;-80
2023/01/18 04:01:03;;;;;;;4.13;3.83;;;3.30;36.60;;;;;;10502719;28;20688;-80
2023/01/18 04:06:08;;;;;;;4.70;4.30;;;3.30;36.40;;;;;;10502284;28;20255;-80
2023/01/18 04:11:14;;;;;;;4.40;4.00;;;3.40;36.70;;;;;;10502052;28;20240;-79
2023/01/18 04:16:20;;;;;;;3.93;3.63;;;3.40;36.50;;;;;;10501358;28;20236;-79
2023/01/18 04:21:28;;;;;;;4.57;4.17;;;3.40;36.40;;;;;;10500594;28;20228;-79
2023/01/18 04:26:32;;;;;;;4.43;4.03;;;3.50;36.50;;;;;;10500172;28;20242;-80
2023/01/18 04:31:36;;;;;;;3.30;3.10;;;3.50;36.30;;;;;;10499708;28;20228;-80
2023/01/18 04:36:40;;;;;;;4.33;3.93;;;3.50;36.20;;;;;;10499789;28;20270;-79
2023/01/18 04:41:44;;;;;;;4.47;4.07;;;3.50;36.20;;;;;;10499164;28;20236;-79
2023/01/18 04:46:47;;;;;;;4.33;3.93;;;3.50;36.10;;;;;;10499502;28;20725;-78
2023/01/18 04:51:52;;;;;;;3.53;3.23;;;3.50;36.00;;;;;;10499104;28;20252;-79
2023/01/18 04:57:04;;;;;;;4.37;4.00;;;3.50;36.10;;;;;;10498112;28;20678;-79
2023/01/18 05:02:10;;;;;;;4.47;4.07;;;3.50;35.80;;;;;;10497106;28;20236;-79
2023/01/18 05:07:15;;;;;;;4.23;3.83;;;3.50;35.60;;;;;;10498123;28;20247;-77
2023/01/18 05:12:18;;;;;;;4.20;3.80;;;3.50;35.70;;;;;;10497119;28;20239;-78
2023/01/18 05:17:26;;;;;;;4.60;4.20;;;3.50;35.60;;;;;;10496895;28;20688;-79
2023/01/18 05:22:31;;;;;;;4.50;4.10;;;3.40;35.50;;;;;;10498210;28;20315;-79
2023/01/18 05:27:37;;;;;;;4.93;4.33;;;3.40;35.80;;;;;;10497260;28;20560;-79
2023/01/18 05:32:40;;;;;;;4.43;4.03;;;3.40;35.60;;;;;;10496201;28;20224;-78
2023/01/18 05:37:46;;;;;;;5.37;4.87;;;3.30;35.60;;;;;;10495868;28;20240;-79
2023/01/18 05:42:49;;;;;;;5.33;4.87;;;3.40;35.50;;;;;;10496782;28;20232;-79
2023/01/18 05:47:54;;;;;;;8.27;4.77;;;3.30;35.40;;;;;;10497541;28;20234;-76
2023/01/18 05:52:59;;;;;;;9.10;6.77;;;3.20;35.50;;;;;;10494770;28;20236;-78
2023/01/18 05:58:03;;;;;;;7.63;6.43;;;3.10;35.70;;;;;;10495115;28;20247;-77
2023/01/18 06:03:06;;;;;;;9.17;7.87;;;3.10;35.80;;;;;;10493479;28;20244;-78
2023/01/18 06:08:13;;;;;;;8.20;6.43;;;3.10;35.80;;;;;;10494457;28;20239;-78
2023/01/18 06:13:17;;;;;;;6.07;5.50;;;3.00;36.10;;;;;;10496991;28;20242;-77
2023/01/18 06:18:20;;;;;;;5.43;4.30;;;3.10;36.20;;;;;;10496553;28;20235;-79
2023/01/18 06:23:25;;;;;;;5.83;4.90;;;3.10;38.00;;;;;;10488344;28;20244;-80
2023/01/18 06:28:28;;;;;;;5.80;5.20;;;3.30;37.60;;;;;;10490079;28;20227;-80
2023/01/18 06:33:35;;;;;;;5.47;4.97;;;3.20;37.00;;;;;;10502039;28;20236;-80
2023/01/18 06:38:40;;;;;;;5.13;4.63;;;3.30;36.80;;;;;;10472894;28;20229;-79
2023/01/18 06:43:43;;;;;;;5.27;4.77;;;3.40;36.70;;;;;;10482270;28;20246;-80
2023/01/18 06:48:46;;;;;;;7.23;5.43;;;3.30;36.30;;;;;;10492302;28;20259;-77
2023/01/18 06:53:55;;;;;;;6.27;5.60;;;3.30;36.10;;;;;;10464271;28;20236;-79
2023/01/18 06:58:59;;;;;;;6.67;5.53;;;3.30;36.10;;;;;;10464741;28;20244;-77
2023/01/18 07:04:04;;;;;;;5.57;4.77;;;3.20;35.90;;;;;;10462746;28;21075;-79
2023/01/18 07:09:09;;;;;;;5.87;4.73;;;3.20;35.90;;;;;;10478733;28;20224;-78
2023/01/18 07:14:12;;;;;;;4.60;4.20;;;3.10;36.00;;;;;;10474455;28;20224;-79
2023/01/18 07:19:16;;;;;;;4.30;3.90;;;3.10;35.90;;;;;;10485294;28;20229;-78
2023/01/18 07:24:21;;;;;;;5.20;4.27;;;3.10;36.00;;;;;;10487049;28;20251;-77
2023/01/18 07:29:24;;;;;;;5.23;4.10;;;3.00;36.10;;;;;;10480093;28;20239;-73
2023/01/18 07:34:27;;;;;;;4.57;4.17;;;3.00;36.00;;;;;;10474401;28;20732;-75
2023/01/18 07:39:32;;;;;;;4.27;3.87;;;3.00;36.10;;;;;;10446953;28;20229;-74
2023/01/18 07:44:36;;;;;;;4.57;4.00;;;2.90;36.20;;;;;;10435331;28;20233;-74
2023/01/18 07:49:40;;;;;;;4.70;4.30;;;2.90;36.10;;;;;;10446485;28;20658;-78
2023/01/18 07:54:44;;;;;;;4.73;4.33;;;2.90;36.30;;;;;;10478668;28;20240;-77
2023/01/18 07:59:50;;;;;;;5.00;4.50;;;2.90;36.60;;;;;;10480190;28;21086;-77
2023/01/18 08:04:53;;;;;;;4.90;4.13;;;2.90;36.60;;;;;;10470647;28;20241;-75
2023/01/18 08:10:02;;;;;;;4.47;4.13;;;3.00;36.80;;;;;;10475552;28;20298;-76
2023/01/18 08:15:06;;;;;;;5.07;4.23;;;3.00;37.00;;;;;;10480323;28;20277;-79
2023/01/18 08:20:11;;;;;;;8.90;5.27;;;3.00;36.90;;;;;;10477405;28;20752;-78
2023/01/18 08:25:16;;;;;;;5.50;4.73;;;3.10;37.00;;;;;;10474675;28;20236;-79
2023/01/18 08:30:19;;;;;;;6.03;5.37;;;3.20;37.20;;;;;;10462633;28;20614;-78
2023/01/18 08:35:26;;;;;;;5.57;5.07;;;3.20;37.20;;;;;;10468780;28;20593;-79
2023/01/18 08:40:30;;;;;;;4.93;4.40;;;3.40;37.30;;;;;;10473192;28;20270;-78
2023/01/18 08:45:34;;;;;;;5.30;4.80;;;3.30;37.40;;;;;;10489134;28;20234;-79
2023/01/18 08:50:39;;;;;;;5.93;4.07;;;3.40;37.50;;;;;;10472150;28;20306;-79
2023/01/18 08:55:46;;;;;;;5.07;4.60;;;3.40;37.40;;;;;;10484179;28;20240;-79
2023/01/18 09:00:49;;;;;;;5.50;5.00;;;3.50;37.70;;;;;;10460274;28;20232;-78
2023/01/18 09:05:53;;;;;;;5.97;5.37;;;3.50;37.60;;;;;;10498542;28;20294;-78
2023/01/18 09:11:01;;;;;;;9.80;8.80;;;3.50;37.80;;;;;;10484376;28;20292;-78
2023/01/18 09:16:06;;;;;;;9.57;8.67;;;3.50;38.50;;;;;;10468401;28;20235;-78
2023/01/18 09:21:12;;;;;;;6.93;6.13;;;3.60;38.30;;;;;;10458373;28;20244;-79
2023/01/18 09:26:19;;;;;;;6.27;5.67;;;3.70;38.40;;;;;;10460012;28;20270;-79
2023/01/18 09:31:25;;;;;;;7.07;6.37;;;3.70;38.60;;;;;;10476261;28;20225;-78
2023/01/18 09:36:31;;;;;;;10.50;8.47;;;3.80;38.50;;;;;;10469837;28;20789;-79
2023/01/18 09:41:41;;;;;;;6.67;5.97;;;3.80;38.30;;;;;;10486764;28;20780;-78
2023/01/18 09:46:49;;;;;;;7.97;6.33;;;3.90;38.90;;;;;;10497175;28;20281;-79
2023/01/18 09:52:06;;;;;;;5.67;4.83;;;4.00;38.90;;;;;;10499913;28;20316;-79
2023/01/18 09:57:23;;;;;;;6.30;5.70;;;4.10;39.70;;;;;;10475860;28;20311;-78
2023/01/18 10:02:31;;;;;;;6.53;5.83;;;4.30;40.10;;;;;;10491178;28;20707;-79
2023/01/18 10:07:38;;;;;;;5.80;5.20;;;4.30;40.10;;;;;;10499656;28;20284;-79
2023/01/18 10:12:49;;;;;;;4.77;4.30;;;4.50;40.10;;;;;;10474217;28;20232;-79
2023/01/18 10:17:55;;;;;;;5.67;5.17;;;4.60;40.50;;;;;;10484910;28;20320;-80
2023/01/18 10:23:03;;;;;;;5.43;4.93;;;4.70;40.00;;;;;;10466384;28;20224;-80
2023/01/18 10:28:31;;;;;;;7.03;6.43;;;4.80;40.50;;;;;;10460540;28;20237;-80
2023/01/18 10:33:40;;;;;;;7.07;6.47;;;4.90;41.20;;;;;;10461068;28;20229;-81
2023/01/18 10:38:44;;;;;;;7.53;6.90;;;5.00;40.10;;;;;;10461627;28;20229;-82
2023/01/18 10:43:50;;;;;;;7.27;6.67;;;5.00;39.70;;;;;;10461134;28;20263;-82
2023/01/18 10:48:56;;;;;;;7.93;7.23;;;5.10;40.10;;;;;;10461790;28;20229;-82
2023/01/18 10:54:00;;;;;;;8.33;7.53;;;5.20;39.80;;;;;;10461562;28;20233;-81
2023/01/18 10:59:05;;;;;;;8.83;7.90;;;5.20;39.70;;;;;;10458305;28;20236;-81
2023/01/18 11:04:20;;;;;;;9.07;8.27;;;5.30;39.90;;;;;;10467389;28;20283;-81
2023/01/18 11:09:47;;;;;;;8.90;8.07;;;5.30;40.50;;;;;;10466388;28;20235;-81
2023/01/18 11:14:51;;;;;;;8.80;7.90;;;5.40;40.60;;;;;;10474857;28;20240;-80
2023/01/18 11:20:06;;;;;;;8.87;8.07;;;5.40;39.60;;;;;;10489758;28;20231;-79
2023/01/18 11:25:16;;;;;;;8.27;7.47;;;5.40;40.10;;;;;;10491531;28;20228;-80
2023/01/18 11:30:26;;;;;;;8.43;7.73;;;5.40;39.90;;;;;;10490386;28;20229;-80
2023/01/18 11:35:33;;;;;;;16.60;13.80;;;5.40;39.90;;;;;;10485486;28;20342;-80
2023/01/18 11:40:39;;;;;;;6.60;6.00;;;5.30;39.60;;;;;;10503030;28;20303;-80
2023/01/18 11:45:52;;;;;;;5.93;5.43;;;5.20;38.90;;;;;;10498983;28;20240;-80
2023/01/18 11:51:06;;;;;;;5.80;5.30;;;5.10;39.20;;;;;;10469746;28;20232;-80
2023/01/18 11:56:14;;;;;;;5.43;4.93;;;5.00;39.20;;;;;;10483036;28;20582;-80
2023/01/18 12:01:44;;;;;;;5.50;5.00;;;5.00;39.20;;;;;;10490108;28;20243;-80
2023/01/18 12:07:02;;;;;;;5.10;4.70;;;5.00;40.20;;;;;;10497369;28;20315;-80
2023/01/18 12:12:21;;;;;;;4.90;4.50;;;5.00;39.70;;;;;;10496891;28;20232;-78
2023/01/18 12:17:43;;;;;;;4.43;4.13;;;5.00;39.50;;;;;;10488677;28;20246;-78
2023/01/18 12:23:15;;;;;;;4.03;3.73;;;4.90;39.40;;;;;;10491378;28;20234;-77
2023/01/18 12:28:31;;;;;;;3.17;2.97;;;4.90;39.10;;;;;;10483996;28;20224;-78
2023/01/18 12:33:46;;;;;;;2.87;2.67;;;4.90;38.70;;;;;;10485185;28;20231;-78
2023/01/18 12:38:51;;;;;;;4.00;3.00;;;4.80;38.50;;;;;;10489606;28;20231;-79
2023/01/18 12:44:07;;;;;;;3.70;3.40;;;4.80;38.40;;;;;;10486243;28;20306;-78
2023/01/18 12:49:17;;;;;;;3.20;3.00;;;4.80;38.80;;;;;;10481743;28;20228;-78
2023/01/18 12:54:29;;;;;;;3.73;3.43;;;4.80;38.50;;;;;;10497784;28;20603;-78
2023/01/18 12:59:40;;;;;;;3.60;3.30;;;4.80;38.60;;;;;;10499807;28;20242;-78
2023/01/18 13:04:52;;;;;;;3.50;3.20;;;4.80;38.50;;;;;;10489390;28;20736;-78
2023/01/18 13:09:56;;;;;;;3.83;3.53;;;4.80;38.50;;;;;;10481261;28;20236;-78
2023/01/18 13:15:04;;;;;;;3.73;3.43;;;4.80;38.50;;;;;;10497153;28;20235;-78
2023/01/18 13:20:17;;;;;;;3.57;3.27;;;4.70;38.60;;;;;;10489131;28;20251;-76
2023/01/18 13:25:31;;;;;;;3.23;3.03;;;4.80;38.70;;;;;;10485008;28;20228;-77
2023/01/18 13:30:51;;;;;;;3.37;3.17;;;4.80;38.60;;;;;;10483207;28;20232;-78
2023/01/18 13:36:01;;;;;;;3.10;2.90;;;4.80;38.70;;;;;;10482000;28;20640;-79
2023/01/18 13:41:09;;;;;;;3.07;2.73;;;4.90;38.60;;;;;;10478709;28;20220;-78
2023/01/18 13:46:19;;;;;;;3.67;3.37;;;4.90;38.40;;;;;;10478169;28;20243;-78
2023/01/18 13:51:52;;;;;;;3.77;3.47;;;5.00;38.50;;;;;;10485855;28;20236;-76
2023/01/18 13:57:16;;;;;;;4.33;4.03;;;5.00;38.60;;;;;;10482122;28;20311;-78
2023/01/18 14:02:26;;;;;;;3.40;3.10;;;5.00;38.50;;;;;;10482610;28;20232;-78
2023/01/18 14:07:38;;;;;;;3.20;3.00;;;5.10;38.30;;;;;;10485594;28;20243;-78
2023/01/18 14:12:49;;;;;;;3.57;3.30;;;5.10;39.10;;;;;;10484362;28;20235;-79
2023/01/18 14:17:55;;;;;;;3.20;3.00;;;5.10;38.40;;;;;;10478243;28;20303;-78
2023/01/18 14:23:13;;;;;;;3.23;3.03;;;5.10;38.10;;;;;;10473180;28;20237;-78
2023/01/18 14:28:21;;;;;;;3.00;2.80;;;5.10;38.30;;;;;;10471776;28;20278;-78
2023/01/18 14:33:28;;;;;;;3.60;3.30;;;5.20;38.30;;;;;;10473526;28;20233;-78
2023/01/18 14:38:35;;;;;;;3.43;3.13;;;5.20;38.30;;;;;;10479335;28;20224;-78
2023/01/18 14:43:43;;;;;;;3.30;3.10;;;5.10;38.10;;;;;;10493874;28;20225;-78
2023/01/18 14:48:51;;;;;;;3.70;3.40;;;5.20;38.40;;;;;;10490839;28;20236;-78
2023/01/18 14:53:59;;;;;;;3.03;2.83;;;5.10;38.10;;;;;;10488143;28;20597;-78
2023/01/18 14:59:17;;;;;;;3.33;3.13;;;5.10;38.10;;;;;;10494058;28;20224;-77
2023/01/18 15:04:23;;;;;;;3.47;2.80;;;5.10;38.10;;;;;;10486213;28;20250;-78
2023/01/18 15:09:32;;;;;;;3.67;3.37;;;5.10;38.00;;;;;;10486880;28;20968;-78
2023/01/18 15:14:38;;;;;;;3.73;3.47;;;5.10;38.20;;;;;;10487133;28;20693;-79
2023/01/18 15:19:44;;;;;;;3.60;3.30;;;5.10;38.50;;;;;;10489376;28;20228;-80
2023/01/18 15:24:49;;;;;;;4.60;4.20;;;5.20;38.50;;;;;;10497452;28;20740;-79
2023/01/18 15:29:57;;;;;;;4.10;3.80;;;5.20;38.50;;;;;;10493358;28;20643;-79
2023/01/18 15:41:26;;;;;;;4.30;4.00;;;5.20;39.00;;;;;;10497112;28;20288;-79
2023/01/18 15:46:31;;;;;;;4.17;3.87;;;5.20;38.60;;;;;;10490373;28;20232;-79
2023/01/18 15:51:56;;;;;;;4.10;3.80;;;5.20;38.40;;;;;;10499860;28;20224;-79
2023/01/18 15:57:13;;;;;;;3.80;3.47;;;5.10;38.70;;;;;;10496944;28;20615;-79
2023/01/18 16:02:18;;;;;;;4.10;3.80;;;5.20;38.70;;;;;;10500374;28;20282;-78
2023/01/18 16:07:37;;;;;;;3.70;3.40;;;5.20;38.30;;;;;;10497746;28;20244;-79
2023/01/18 16:12:42;;;;;;;3.73;3.43;;;5.20;38.70;;;;;;10508978;28;20231;-79
2023/01/18 16:17:45;;;;;;;3.43;3.20;;;5.20;38.30;;;;;;10502713;28;20243;-79
2023/01/18 16:22:54;;;;;;;3.53;3.33;;;5.20;38.20;;;;;;10502808;28;20224;-79
2023/01/18 16:28:00;;;;;;;3.60;3.30;;;5.10;38.40;;;;;;10503045;28;20243;-79
2023/01/18 16:33:09;;;;;;;4.17;3.80;;;5.20;38.40;;;;;;10501681;28;20224;-79
2023/01/18 16:38:13;;;;;;;5.17;4.67;;;5.10;38.50;;;;;;10498039;28;20224;-78
2023/01/18 16:43:23;;;;;;;3.73;3.43;;;5.10;38.40;;;;;;10500654;28;20228;-79
2023/01/18 16:48:29;;;;;;;4.63;4.00;;;5.00;38.70;;;;;;10494475;28;20505;-78
2023/01/18 16:53:32;;;;;;;3.60;3.40;;;5.00;38.60;;;;;;10496242;28;20239;-78
2023/01/18 16:58:37;;;;;;;3.93;3.63;;;5.00;38.60;;;;;;10494487;28;20232;-78
2023/01/18 17:03:40;;;;;;;3.67;3.37;;;5.00;38.80;;;;;;10496386;28;20239;-77
2023/01/18 17:08:43;;;;;;;4.47;4.07;;;5.00;38.60;;;;;;10499667;28;20695;-78
2023/01/18 17:13:49;;;;;;;4.90;4.43;;;5.00;38.60;;;;;;10501549;28;20721;-78
2023/01/18 17:18:52;;;;;;;6.07;5.47;;;5.10;38.80;;;;;;10500615;28;20235;-78
2023/01/18 17:23:55;;;;;;;7.47;6.77;;;5.10;38.70;;;;;;10501262;28;20231;-78
2023/01/18 17:28:59;;;;;;;4.90;4.50;;;5.10;38.70;;;;;;10499193;28;20238;-79
2023/01/18 17:34:02;;;;;;;5.10;4.70;;;5.10;38.70;;;;;;10499055;28;20234;-79
2023/01/18 17:39:06;;;;;;;4.50;4.10;;;5.10;38.70;;;;;;10498120;28;20726;-79
2023/01/18 17:44:10;;;;;;;4.70;4.30;;;5.10;38.60;;;;;;10498221;28;20609;-79
2023/01/18 17:49:13;;;;;;;4.97;4.57;;;5.10;38.70;;;;;;10498946;28;20236;-79
2023/01/18 17:54:16;;;;;;;4.40;4.00;;;5.10;38.70;;;;;;10498365;28;20693;-79
2023/01/18 17:59:24;;;;;;;5.13;4.73;;;5.10;38.80;;;;;;10498446;28;20228;-79
2023/01/18 18:04:27;;;;;;;4.20;3.90;;;5.10;38.90;;;;;;10500364;28;20228;-78
2023/01/18 18:09:31;;;;;;;5.23;4.83;;;5.10;38.70;;;;;;10500467;28;20227;-78
2023/01/18 18:14:36;;;;;;;5.37;4.97;;;5.10;38.70;;;;;;10508064;28;20601;-79
2023/01/18 18:19:39;;;;;;;5.30;4.80;;;5.10;38.80;;;;;;10509669;28;20235;-79
2023/01/18 18:24:44;;;;;;;5.13;4.70;;;5.10;38.70;;;;;;10508453;28;20254;-80
2023/01/18 18:29:48;;;;;;;4.97;4.57;;;5.10;38.70;;;;;;10509448;28;20228;-79
2023/01/18 18:34:51;;;;;;;4.63;4.30;;;5.10;38.60;;;;;;10510185;28;20228;-80
2023/01/18 18:39:54;;;;;;;5.80;5.30;;;5.10;38.50;;;;;;10508890;28;20616;-80
2023/01/18 18:44:59;;;;;;;5.33;4.93;;;5.00;38.40;;;;;;10506983;28;20240;-80
2023/01/18 18:50:02;;;;;;;6.30;5.63;;;5.00;38.60;;;;;;10508557;28;20315;-80
2023/01/18 18:55:06;;;;;;;7.10;6.40;;;5.00;38.70;;;;;;10507611;28;20228;-80
2023/01/18 19:00:18;;;;;;;5.83;5.33;;;4.90;38.70;;;;;;10507337;28;20274;-80
2023/01/18 19:05:21;;;;;;;5.77;5.27;;;5.00;38.80;;;;;;10506148;28;20236;-80
2023/01/18 19:10:26;;;;;;;5.60;5.10;;;4.90;38.50;;;;;;10506438;28;20238;-81
2023/01/18 19:15:31;;;;;;;5.30;4.90;;;5.00;38.50;;;;;;10504200;28;20236;-82
2023/01/18 19:20:34;;;;;;;5.23;4.83;;;5.00;38.60;;;;;;10500922;28;20259;-76
2023/01/18 19:25:38;;;;;;;5.90;5.40;;;5.00;38.50;;;;;;10494392;28;20635;-74
2023/01/18 19:30:42;;;;;;;6.33;5.77;;;5.00;38.40;;;;;;10496850;28;20228;-74
2023/01/18 19:35:46;;;;;;;6.80;6.20;;;5.00;38.40;;;;;;10495826;28;20236;-74
2023/01/18 19:40:49;;;;;;;6.43;5.70;;;5.00;38.40;;;;;;10494477;28;20239;-74
2023/01/18 19:45:56;;;;;;;7.13;6.53;;;5.00;38.50;;;;;;10495060;28;20248;-73
2023/01/18 19:51:07;;;;;;;6.70;6.10;;;5.00;38.40;;;;;;10494654;28;20229;-73
2023/01/18 19:56:24;;;;;;;6.70;6.10;;;5.00;38.50;;;;;;10494710;28;20672;-75
2023/01/18 20:01:29;;;;;;;6.07;5.57;;;4.90;38.30;;;;;;10496822;28;20232;-75
2023/01/18 20:06:42;;;;;;;6.57;5.97;;;4.90;38.50;;;;;;10494393;28;20231;-73
2023/01/18 20:11:45;;;;;;;6.87;6.27;;;4.90;38.50;;;;;;10494549;28;20735;-75
2023/01/18 20:16:50;;;;;;;7.13;6.53;;;4.90;38.60;;;;;;10494925;28;20949;-74
2023/01/18 20:21:53;;;;;;;8.10;7.30;;;4.90;38.70;;;;;;10495449;28;20243;-76
2023/01/18 20:27:01;;;;;;;7.93;7.13;;;4.90;38.70;;;;;;10490569;28;20242;-76
2023/01/18 20:32:19;;;;;;;7.47;6.77;;;4.90;38.70;;;;;;10449224;28;20248;-76
2023/01/18 20:37:22;;;;;;;7.87;7.17;;;4.90;38.70;;;;;;10485634;28;20232;-76
2023/01/18 20:42:25;;;;;;;7.67;7.07;;;5.00;38.70;;;;;;10488317;28;20720;-76
2023/01/18 20:47:30;;;;;;;7.73;7.07;;;4.90;38.60;;;;;;10486214;28;20232;-74
2023/01/18 20:52:33;;;;;;;7.57;6.87;;;4.90;38.70;;;;;;10486525;28;20235;-76
2023/01/18 20:57:36;;;;;;;7.80;7.10;;;4.90;39.50;;;;;;10485275;28;20232;-75
2023/01/18 21:02:42;;;;;;;7.80;7.13;;;5.00;38.90;;;;;;10485980;28;20244;-74
2023/01/18 21:07:45;;;;;;;8.30;7.53;;;4.90;38.90;;;;;;10482221;28;20281;-75
2023/01/18 21:12:48;;;;;;;7.80;7.20;;;4.90;38.90;;;;;;10483760;28;20238;-80
2023/01/18 21:17:53;;;;;;;8.40;7.70;;;5.00;38.90;;;;;;10485981;28;20582;-75
2023/01/18 21:22:56;;;;;;;8.33;7.50;;;5.00;39.00;;;;;;10484801;28;20228;-75
2023/01/18 21:28:00;;;;;;;8.37;7.47;;;5.00;38.90;;;;;;10483725;28;20236;-75
2023/01/18 21:33:05;;;;;;;8.57;7.77;;;5.10;38.90;;;;;;10484033;28;20228;-79
2023/01/18 21:38:09;;;;;;;7.93;7.23;;;5.10;39.10;;;;;;10486873;28;20221;-78
2023/01/18 21:48:40;;;;;;;9.30;8.40;;;5.00;39.30;;;;;;10488810;28;20232;-80
2023/01/18 21:59:04;;;;;;;9.53;8.63;;;5.10;39.20;;;;;;10491082;28;20230;-80
2023/01/18 22:09:31;;;;;;;9.03;8.13;;;5.00;39.50;;;;;;10486427;28;20238;-79
2023/01/18 22:14:35;;;;;;;8.30;7.50;;;5.00;39.20;;;;;;10484615;28;20239;-80
2023/01/18 22:19:42;;;;;;;7.67;6.97;;;5.00;39.20;;;;;;10486492;28;20227;-80
2023/01/18 22:24:45;;;;;;;7.73;6.90;;;5.00;39.30;;;;;;10483465;28;20913;-80
2023/01/18 22:29:49;;;;;;;8.97;7.13;;;5.00;39.20;;;;;;10484283;28;20228;-80
2023/01/18 22:34:53;;;;;;;7.60;6.67;;;5.00;39.10;;;;;;10485721;28;20236;-80
2023/01/18 22:39:57;;;;;;;8.60;6.77;;;5.00;39.00;;;;;;10486294;28;20221;-80
2023/01/18 22:45:00;;;;;;;8.77;6.40;;;4.90;38.90;;;;;;10484162;28;20228;-80
2023/01/18 22:50:06;;;;;;;7.07;5.70;;;4.90;38.90;;;;;;10487324;28;20778;-80
2023/01/18 22:55:09;;;;;;;8.13;5.90;;;4.80;39.00;;;;;;10483209;28;20545;-79
2023/01/18 23:00:14;;;;;;;6.60;6.00;;;4.80;39.00;;;;;;10484129;28;20734;-80
2023/01/18 23:05:18;;;;;;;6.33;5.73;;;4.80;39.20;;;;;;10490995;28;20241;-80
2023/01/18 23:10:21;;;;;;;8.37;6.90;;;4.80;39.30;;;;;;10502731;28;20252;-80
2023/01/18 23:20:46;;;;;;;8.20;7.40;;;4.80;39.30;;;;;;10500537;28;20235;-78
2023/01/18 23:25:54;;;;;;;10.20;8.90;;;4.80;39.30;;;;;;10501502;28;20271;-79
2023/01/18 23:30:57;;;;;;;9.33;8.40;;;4.80;39.60;;;;;;10499636;28;20533;-79
2023/01/18 23:36:02;;;;;;;11.07;9.53;;;4.80;39.10;;;;;;10503271;28;20286;-80
2023/01/18 23:57:08;;;;;;;12.20;10.03;;;4.70;39.40;;;;;;10502227;28;20235;-77
